Light Street, Pennsylvania
Current Conditions -  °F | °C
As of 2:15 AM on Thursday 23 Oct 2014 (Local Time) from KHZL Reporting Station
Overcast Overcast  
Wind Chill: 38°   Ceiling: 500
Heat Index: 45°   Visibility: 10mi
Dew Point: 43°   Wind: 15mph
Humidity: 93%   Direction: 330°NNW
Pressure: 29.9"   Gusts: 23mph
Location:  41.0201°N, 76.4384°W
Report Text: KHZL 230615Z AUTO 33013G20KT 10SM OVC005 07/06 A2990 RMK AO2
Loading
Personal Weather Stations






























Interactive Weather Map
Tropical Storm Tracking
New forecast layout! Learn more

10-Day Weather Forecast

Advertisements
Track Severe Weather on mobile